Time;durP1;ratioP1;P1;durP2;ratioP2;P2;SDS_P1;SDS_P2;PMS_P1;PMS_P2;Temp;Humidity;BMP_temperature;BMP_pressure;BME280_temperature;BME280_humidity;BME280_pressure;Samples;Min_cycle;Max_cycle;Signal;HPM_P1;HPM_P2
2021/03/09 00:02:16;;;;;;;29.05;18.67;;;4.20;99.90;;;;;;6089648;23;20304;-89
2021/03/09 00:04:43;;;;;;;24.27;17.55;;;4.20;99.90;;;;;;6089545;23;20018;-88
2021/03/09 00:07:09;;;;;;;26.08;18.65;;;4.30;99.90;;;;;;6088749;23;20098;-89
2021/03/09 00:09:36;;;;;;;23.85;18.70;;;4.30;99.90;;;;;;6089288;23;20018;-88
2021/03/09 00:12:04;;;;;;;27.55;19.63;;;4.30;99.90;;;;;;6090504;23;20045;-89
2021/03/09 00:14:30;;;;;;;26.05;18.25;;;4.30;99.90;;;;;;6090295;23;20014;-89
2021/03/09 00:16:57;;;;;;;24.58;18.58;;;4.30;99.90;;;;;;6091805;23;20372;-89
2021/03/09 00:19:24;;;;;;;25.35;19.13;;;4.30;99.90;;;;;;6089383;23;20031;-89
2021/03/09 00:21:51;;;;;;;24.58;19.33;;;4.30;99.90;;;;;;6090948;23;20076;-89
2021/03/09 00:24:17;;;;;;;23.98;18.90;;;4.30;99.90;;;;;;6088699;23;20022;-89
2021/03/09 00:26:44;;;;;;;26.73;19.52;;;4.30;99.90;;;;;;6090003;23;20499;-88
2021/03/09 00:29:10;;;;;;;32.65;21.08;;;4.30;99.90;;;;;;6088865;23;20011;-88
2021/03/09 00:31:37;;;;;;;29.00;21.20;;;4.20;99.90;;;;;;6090210;23;20019;-89
2021/03/09 00:34:04;;;;;;;27.90;21.33;;;4.30;99.90;;;;;;6087818;23;20010;-88
2021/03/09 00:36:30;;;;;;;31.92;21.30;;;4.20;99.90;;;;;;6090495;23;20065;-89
2021/03/09 00:38:58;;;;;;;28.48;21.25;;;4.20;99.90;;;;;;6088839;23;20053;-88
2021/03/09 00:41:24;;;;;;;27.55;21.08;;;4.20;99.90;;;;;;6088917;23;20042;-89
2021/03/09 00:43:51;;;;;;;27.23;20.38;;;4.20;99.90;;;;;;6089133;23;20097;-88
2021/03/09 00:46:17;;;;;;;29.27;20.80;;;4.20;99.90;;;;;;6087724;23;20029;-88
2021/03/09 00:48:45;;;;;;;27.30;20.15;;;4.10;99.90;;;;;;6090754;23;20444;-89
2021/03/09 00:51:11;;;;;;;34.83;21.27;;;4.20;99.90;;;;;;6089284;23;20037;-88
2021/03/09 00:53:38;;;;;;;26.58;21.15;;;4.20;99.90;;;;;;6091796;23;20023;-88
2021/03/09 00:56:05;;;;;;;25.60;20.00;;;4.20;99.90;;;;;;6088789;23;20438;-89
2021/03/09 00:58:32;;;;;;;25.60;19.85;;;4.20;99.90;;;;;;6089499;23;20097;-89
2021/03/09 01:00:59;;;;;;;26.42;19.55;;;4.20;99.90;;;;;;6088876;23;20092;-89
2021/03/09 01:03:25;;;;;;;25.92;19.73;;;4.20;99.90;;;;;;6089562;23;20027;-89
2021/03/09 01:05:52;;;;;;;27.17;18.77;;;4.20;99.90;;;;;;6090994;23;20026;-89
2021/03/09 01:08:19;;;;;;;25.40;18.70;;;4.20;99.90;;;;;;6086558;23;20022;-89
2021/03/09 01:10:46;;;;;;;24.48;18.48;;;4.20;99.90;;;;;;6089773;23;20015;-88
2021/03/09 01:13:13;;;;;;;25.77;19.42;;;4.30;99.90;;;;;;6089426;23;20022;-88
2021/03/09 01:15:40;;;;;;;24.92;19.08;;;4.30;99.90;;;;;;6090144;23;20026;-88
2021/03/09 01:18:18;;;;;;;23.30;18.58;;;4.30;99.90;;;;;;6089013;23;20068;-89
2021/03/09 01:20:47;;;;;;;29.42;18.38;;;4.30;99.90;;;;;;6089756;23;20018;-88
2021/03/09 01:23:14;;;;;;;25.35;19.02;;;4.30;99.90;;;;;;6111337;23;20073;-88
2021/03/09 01:25:41;;;;;;;22.23;18.75;;;4.30;99.90;;;;;;6089061;23;20076;-89
2021/03/09 01:28:09;;;;;;;25.73;19.17;;;4.30;99.90;;;;;;6088972;23;20015;-88
2021/03/09 01:30:36;;;;;;;25.70;18.52;;;4.30;99.90;;;;;;6115151;23;20045;-88
2021/03/09 01:33:07;;;;;;;24.08;18.00;;;4.40;99.90;;;;;;6089553;23;20014;-88
2021/03/09 01:35:34;;;;;;;24.48;17.45;;;4.40;99.90;;;;;;6090468;23;20046;-89
2021/03/09 01:38:02;;;;;;;24.58;18.90;;;4.40;99.90;;;;;;6089774;23;20055;-89
2021/03/09 01:40:30;;;;;;;25.27;19.85;;;4.40;99.90;;;;;;6089504;23;20343;-88
2021/03/09 01:42:57;;;;;;;23.67;19.15;;;4.40;99.90;;;;;;6090368;23;20014;-89
2021/03/09 01:45:24;;;;;;;25.52;19.02;;;4.40;99.90;;;;;;6089290;23;20631;-89
2021/03/09 01:47:51;;;;;;;26.23;19.13;;;4.40;99.90;;;;;;6089220;23;20053;-89
2021/03/09 01:50:19;;;;;;;25.23;18.15;;;4.40;99.90;;;;;;6088004;23;20140;-89
2021/03/09 01:52:48;;;;;;;25.63;18.55;;;4.40;99.90;;;;;;6090633;23;20018;-88
2021/03/09 01:55:15;;;;;;;25.95;19.20;;;4.40;99.90;;;;;;6089194;23;20018;-88
2021/03/09 01:57:43;;;;;;;27.25;20.45;;;4.40;99.90;;;;;;6091098;23;20053;-89
2021/03/09 02:00:11;;;;;;;32.67;20.38;;;4.30;99.90;;;;;;6088623;23;20024;-89
2021/03/09 02:02:39;;;;;;;30.45;21.55;;;4.30;99.90;;;;;;6090283;23;20034;-89
2021/03/09 02:05:08;;;;;;;27.70;20.88;;;4.30;99.90;;;;;;6089720;23;20022;-89
2021/03/09 02:07:35;;;;;;;28.92;19.88;;;4.30;99.90;;;;;;6089378;23;20022;-89
2021/03/09 02:10:05;;;;;;;24.63;19.45;;;4.30;99.90;;;;;;6088635;23;20014;-89
2021/03/09 02:12:35;;;;;;;28.77;20.15;;;4.20;99.90;;;;;;6085069;23;20041;-89
2021/03/09 02:15:26;;;;;;;24.73;19.13;;;4.20;99.90;;;;;;6111127;23;20018;-89
2021/03/09 02:18:05;;;;;;;27.70;19.30;;;4.20;99.90;;;;;;6110167;23;20014;-89
2021/03/09 02:21:09;;;;;;;25.02;18.52;;;4.10;99.90;;;;;;6111334;23;20080;-89
2021/03/09 02:24:08;;;;;;;25.88;18.48;;;4.00;99.90;;;;;;6111646;23;20446;-89
2021/03/09 02:27:06;;;;;;;24.00;18.23;;;4.00;99.90;;;;;;6111628;23;20022;-89
2021/03/09 02:29:40;;;;;;;26.15;17.90;;;3.90;99.90;;;;;;6089926;23;20319;-89
2021/03/09 02:32:12;;;;;;;24.55;17.73;;;3.80;99.90;;;;;;6113238;23;20065;-88
2021/03/09 02:34:54;;;;;;;24.67;18.65;;;3.80;99.90;;;;;;6089991;23;20021;-88
2021/03/09 02:37:23;;;;;;;24.13;17.85;;;3.70;99.90;;;;;;6088549;23;20019;-88
2021/03/09 02:39:51;;;;;;;22.15;17.88;;;3.70;99.90;;;;;;6088915;23;20010;-89
2021/03/09 02:42:26;;;;;;;25.23;19.05;;;3.60;99.90;;;;;;6089959;23;20022;-89
2021/03/09 02:44:59;;;;;;;28.05;19.17;;;3.60;99.90;;;;;;6088112;23;20434;-89
2021/03/09 02:47:27;;;;;;;30.35;19.05;;;3.50;99.90;;;;;;6087373;23;20022;-88
2021/03/09 02:49:57;;;;;;;28.20;19.15;;;3.50;99.90;;;;;;6088282;23;20104;-89
2021/03/09 02:52:26;;;;;;;26.55;19.42;;;3.50;99.90;;;;;;6088116;23;20077;-88
2021/03/09 02:54:53;;;;;;;32.25;19.42;;;3.40;99.90;;;;;;6088153;23;20064;-88
2021/03/09 02:57:22;;;;;;;25.73;19.13;;;3.40;99.90;;;;;;6088152;23;20027;-87
2021/03/09 02:59:50;;;;;;;25.63;19.73;;;3.40;99.90;;;;;;6087484;23;20022;-89
2021/03/09 03:02:18;;;;;;;26.45;18.48;;;3.40;99.90;;;;;;6088626;23;20018;-88
2021/03/09 03:04:49;;;;;;;35.65;18.67;;;3.30;99.90;;;;;;6087574;23;20014;-88
2021/03/09 03:07:17;;;;;;;27.70;19.30;;;3.30;99.90;;;;;;6088270;23;20088;-88
2021/03/09 03:09:47;;;;;;;27.40;19.30;;;3.30;99.90;;;;;;6087795;23;20072;-89
2021/03/09 03:12:14;;;;;;;28.60;19.83;;;3.30;99.90;;;;;;6087460;23;20030;-89
2021/03/09 03:14:42;;;;;;;25.52;19.10;;;3.40;99.90;;;;;;6088604;23;20022;-88
2021/03/09 03:17:12;;;;;;;25.25;18.52;;;3.40;99.90;;;;;;6086665;23;20029;-89
2021/03/09 03:19:48;;;;;;;22.90;18.52;;;3.50;99.90;;;;;;6088868;23;20018;-89
2021/03/09 03:22:17;;;;;;;28.52;19.45;;;3.50;99.90;;;;;;6088085;23;20042;-89
2021/03/09 03:24:46;;;;;;;25.52;19.58;;;3.50;99.90;;;;;;6089204;23;20025;-88
2021/03/09 03:27:16;;;;;;;26.95;19.65;;;3.50;99.90;;;;;;6087575;23;20019;-88
2021/03/09 03:29:44;;;;;;;30.50;19.10;;;3.50;99.90;;;;;;6089738;23;20026;-88
2021/03/09 03:32:16;;;;;;;33.60;20.58;;;3.50;99.90;;;;;;6090144;22;20080;-89
2021/03/09 03:34:46;;;;;;;27.40;19.73;;;3.50;99.90;;;;;;6090169;23;20090;-89
2021/03/09 03:37:14;;;;;;;26.38;18.48;;;3.50;99.90;;;;;;6089884;23;20127;-89
2021/03/09 03:39:41;;;;;;;26.95;20.27;;;3.50;99.90;;;;;;6089630;23;20126;-89
2021/03/09 03:42:08;;;;;;;28.30;20.33;;;3.60;99.90;;;;;;6112632;23;20105;-89
2021/03/09 03:44:35;;;;;;;27.90;19.85;;;3.60;99.90;;;;;;6089648;23;20015;-89
2021/03/09 03:47:02;;;;;;;28.90;20.27;;;3.60;99.90;;;;;;6090490;23;20011;-89
2021/03/09 03:49:29;;;;;;;26.38;20.50;;;3.60;99.90;;;;;;6087341;23;20042;-88
2021/03/09 03:52:12;;;;;;;29.80;20.60;;;3.60;99.90;;;;;;6090043;23;20019;-89
2021/03/09 03:54:55;;;;;;;28.23;20.50;;;3.60;99.90;;;;;;6110865;23;20033;-89
2021/03/09 03:57:31;;;;;;;27.63;19.30;;;3.60;99.90;;;;;;6088911;23;20030;-88
2021/03/09 04:00:03;;;;;;;27.92;20.27;;;3.60;99.90;;;;;;6113406;23;20108;-88
2021/03/09 04:02:31;;;;;;;24.58;18.48;;;3.60;99.90;;;;;;6091098;23;20023;-88
2021/03/09 04:04:58;;;;;;;29.00;19.77;;;3.60;99.90;;;;;;6089558;23;20024;-89
2021/03/09 04:07:27;;;;;;;28.98;20.85;;;3.60;99.90;;;;;;6089935;23;20023;-89
2021/03/09 04:09:56;;;;;;;31.45;20.30;;;3.60;99.90;;;;;;6088766;23;20441;-89
2021/03/09 04:12:27;;;;;;;45.45;20.25;;;3.60;99.90;;;;;;6090987;23;20027;-89
2021/03/09 04:14:57;;;;;;;29.67;20.17;;;3.60;99.90;;;;;;6090100;23;20042;-88
2021/03/09 04:17:26;;;;;;;28.75;20.35;;;3.70;99.90;;;;;;6088929;23;20018;-88
2021/03/09 04:19:55;;;;;;;27.45;20.33;;;3.70;99.90;;;;;;6090166;23;20055;-89
2021/03/09 04:22:24;;;;;;;26.27;19.70;;;3.70;99.90;;;;;;6091353;23;20015;-88
2021/03/09 04:24:51;;;;;;;25.92;18.65;;;3.70;99.90;;;;;;6091646;23;20029;-89
2021/03/09 04:27:21;;;;;;;27.58;20.08;;;3.80;99.90;;;;;;6089608;23;20026;-88
2021/03/09 04:29:55;;;;;;;28.92;20.70;;;3.80;99.90;;;;;;6090532;23;20018;-88
2021/03/09 04:32:25;;;;;;;28.73;20.38;;;3.80;99.90;;;;;;6088925;23;20018;-88
2021/03/09 04:34:52;;;;;;;27.02;20.35;;;3.90;99.90;;;;;;6089964;23;20018;-89
2021/03/09 04:37:37;;;;;;;28.60;21.55;;;3.90;99.90;;;;;;6088584;23;20034;-88
2021/03/09 04:40:04;;;;;;;30.52;20.63;;;3.90;99.90;;;;;;6115038;23;20068;-89
2021/03/09 04:42:31;;;;;;;28.63;20.52;;;4.00;99.90;;;;;;6087760;23;20026;-89
2021/03/09 04:44:58;;;;;;;26.92;20.00;;;4.00;99.90;;;;;;6091210;23;20033;-88
2021/03/09 04:47:25;;;;;;;28.63;21.15;;;4.00;99.90;;;;;;6089735;23;20105;-89
2021/03/09 04:49:56;;;;;;;27.88;19.80;;;4.00;99.90;;;;;;6090530;23;20019;-89
2021/03/09 04:52:24;;;;;;;28.92;20.23;;;4.00;99.90;;;;;;6088859;23;20427;-89
2021/03/09 04:54:55;;;;;;;25.85;21.33;;;4.00;99.90;;;;;;6088555;23;20450;-89
2021/03/09 04:57:36;;;;;;;26.88;20.50;;;4.00;99.90;;;;;;6088783;23;20076;-89
2021/03/09 05:00:08;;;;;;;27.00;20.17;;;4.00;99.90;;;;;;6089837;23;20022;-89
2021/03/09 05:02:41;;;;;;;40.33;21.40;;;4.00;99.90;;;;;;6088027;23;20469;-89
2021/03/09 05:05:09;;;;;;;31.58;21.42;;;4.00;99.90;;;;;;6090129;23;20022;-89
2021/03/09 05:07:36;;;;;;;31.35;21.52;;;4.00;99.90;;;;;;6090326;23;20019;-89
2021/03/09 05:10:04;;;;;;;29.02;20.30;;;4.10;99.90;;;;;;6089467;23;20019;-89
2021/03/09 05:12:31;;;;;;;28.83;21.20;;;4.10;99.90;;;;;;6088718;23;20023;-89
2021/03/09 05:14:58;;;;;;;29.30;21.38;;;4.00;99.90;;;;;;6092458;23;20025;-89
2021/03/09 05:17:25;;;;;;;30.15;21.58;;;4.00;99.90;;;;;;6091221;23;20022;-89
2021/03/09 05:19:52;;;;;;;30.33;21.80;;;4.10;99.90;;;;;;6093141;23;20018;-88
2021/03/09 05:22:18;;;;;;;28.20;21.13;;;4.10;99.90;;;;;;6098962;23;20361;-88
2021/03/09 05:24:45;;;;;;;31.02;21.23;;;4.00;99.90;;;;;;6094647;23;20089;-88
2021/03/09 05:27:12;;;;;;;30.13;21.05;;;4.00;99.90;;;;;;6090911;23;20021;-89
2021/03/09 05:29:39;;;;;;;30.67;20.10;;;3.90;99.90;;;;;;6091859;23;20460;-88
2021/03/09 05:32:06;;;;;;;29.55;21.58;;;3.90;99.90;;;;;;6089865;23;20011;-88
2021/03/09 05:34:33;;;;;;;31.25;20.65;;;3.90;99.90;;;;;;6091430;23;20325;-89
2021/03/09 05:37:00;;;;;;;27.23;20.25;;;3.80;99.90;;;;;;6089486;23;20019;-89
2021/03/09 05:39:26;;;;;;;28.05;20.58;;;3.80;99.90;;;;;;6088887;23;20093;-89
2021/03/09 05:41:53;;;;;;;29.83;21.00;;;3.70;99.90;;;;;;6089002;23;20029;-88
2021/03/09 05:44:20;;;;;;;29.92;21.45;;;3.60;99.90;;;;;;6088524;23;20366;-91
2021/03/09 05:46:48;;;;;;;28.25;20.17;;;3.50;99.90;;;;;;6088226;23;20065;-93
2021/03/09 05:49:15;;;;;;;26.60;18.92;;;3.40;99.90;;;;;;6108252;23;20030;-93
2021/03/09 05:51:49;;;;;;;26.42;18.73;;;3.30;99.90;;;;;;6089906;23;20019;-93
2021/03/09 05:54:17;;;;;;;27.52;19.67;;;3.30;99.90;;;;;;6091736;23;20053;-89
2021/03/09 05:56:44;;;;;;;36.92;20.40;;;3.20;99.90;;;;;;6089025;23;20015;-90
2021/03/09 05:59:11;;;;;;;29.90;19.33;;;3.20;99.90;;;;;;6089941;23;20082;-90
2021/03/09 06:01:38;;;;;;;28.70;19.27;;;3.20;99.90;;;;;;6087911;23;20011;-90
2021/03/09 06:04:07;;;;;;;27.20;19.25;;;3.10;99.90;;;;;;6089083;23;20011;-90
2021/03/09 06:06:33;;;;;;;33.03;21.00;;;3.10;99.90;;;;;;6090416;23;20098;-90
2021/03/09 06:09:01;;;;;;;32.20;19.58;;;3.10;99.90;;;;;;6091068;23;20033;-89
2021/03/09 06:11:28;;;;;;;31.67;19.45;;;3.00;99.90;;;;;;6089864;23;20022;-91
2021/03/09 06:13:55;;;;;;;38.05;20.30;;;3.00;99.90;;;;;;6088010;23;20014;-92
2021/03/09 06:16:22;;;;;;;28.35;18.42;;;3.00;99.90;;;;;;6089223;23;20019;-91
2021/03/09 06:18:56;;;;;;;28.35;19.38;;;2.90;99.90;;;;;;6092458;23;20032;-90
2021/03/09 06:21:24;;;;;;;36.05;19.70;;;2.80;99.90;;;;;;6087205;23;20019;-91
2021/03/09 06:23:52;;;;;;;23.63;18.23;;;2.80;99.90;;;;;;6089108;23;20022;-90
2021/03/09 06:26:38;;;;;;;26.03;18.63;;;2.70;99.90;;;;;;6088657;23;20015;-90
2021/03/09 06:29:13;;;;;;;25.98;19.05;;;2.70;99.90;;;;;;6088311;23;20266;-91
2021/03/09 06:31:58;;;;;;;27.65;19.10;;;2.60;99.90;;;;;;6090906;23;20049;-91
2021/03/09 06:34:30;;;;;;;30.48;19.15;;;2.60;99.90;;;;;;6111502;23;20429;-91
2021/03/09 06:37:12;;;;;;;28.42;18.50;;;2.60;99.90;;;;;;6087448;23;20105;-90
2021/03/09 06:39:54;;;;;;;34.30;19.58;;;2.60;99.90;;;;;;6113598;23;20026;-90
2021/03/09 06:42:22;;;;;;;31.90;19.30;;;2.60;99.90;;;;;;6116054;23;20053;-91
2021/03/09 06:44:54;;;;;;;29.92;19.75;;;2.60;99.90;;;;;;6101405;23;20023;-91
2021/03/09 06:47:47;;;;;;;31.95;20.05;;;2.60;99.90;;;;;;6117595;23;20473;-91
2021/03/09 06:50:15;;;;;;;27.10;18.85;;;2.60;99.90;;;;;;6093098;23;20094;-92
2021/03/09 06:52:44;;;;;;;27.27;19.40;;;2.70;99.90;;;;;;6088854;23;20045;-91
2021/03/09 06:55:13;;;;;;;25.63;18.40;;;2.70;99.90;;;;;;6114076;23;20022;-92
2021/03/09 06:57:47;;;;;;;26.55;18.65;;;2.70;99.90;;;;;;6081171;23;20018;-89
2021/03/09 07:00:26;;;;;;;30.48;19.10;;;2.70;99.90;;;;;;6090344;23;20468;-91
2021/03/09 07:02:52;;;;;;;30.45;20.13;;;2.70;99.90;;;;;;6115162;23;20018;-90
2021/03/09 07:05:22;;;;;;;29.98;19.90;;;2.80;99.90;;;;;;6091067;23;20029;-93
2021/03/09 07:07:49;;;;;;;26.67;18.42;;;2.80;99.90;;;;;;6091729;23;20418;-92
2021/03/09 07:10:18;;;;;;;32.08;20.63;;;2.80;99.90;;;;;;6091056;23;20025;-92
2021/03/09 07:12:51;;;;;;;30.42;20.20;;;2.70;99.90;;;;;;6114517;23;20029;-92
2021/03/09 07:15:20;;;;;;;30.75;19.85;;;2.70;99.90;;;;;;6091047;23;20020;-92
2021/03/09 07:17:50;;;;;;;29.48;19.10;;;2.70;99.90;;;;;;6115781;23;20019;-92
2021/03/09 07:20:18;;;;;;;29.52;19.48;;;2.60;99.90;;;;;;6113702;23;20019;-92
2021/03/09 07:23:21;;;;;;;29.33;20.10;;;2.60;99.90;;;;;;5094263;27;20183;-92
2021/03/09 07:25:53;;;;;;;29.33;19.83;;;2.60;99.90;;;;;;5078508;28;20045;-92
2021/03/09 07:28:23;;;;;;;29.08;19.48;;;2.70;99.90;;;;;;5072148;28;20051;-91
2021/03/09 07:30:54;;;;;;;29.58;19.60;;;2.70;99.90;;;;;;5060654;28;20055;-91
2021/03/09 07:33:21;;;;;;;29.50;20.70;;;2.70;99.90;;;;;;5068608;28;20478;-91
2021/03/09 07:35:48;;;;;;;26.65;18.83;;;2.80;99.90;;;;;;5067627;28;20041;-91
2021/03/09 07:38:20;;;;;;;28.17;19.95;;;2.90;99.90;;;;;;5067010;28;20048;-93
2021/03/09 07:40:48;;;;;;;29.80;18.85;;;3.00;99.90;;;;;;5068724;28;20052;-92
2021/03/09 07:43:14;;;;;;;29.38;19.92;;;3.10;99.90;;;;;;5067946;28;20049;-93
2021/03/09 07:45:42;;;;;;;28.75;18.55;;;3.10;99.90;;;;;;5068670;28;20037;-92
2021/03/09 07:48:18;;;;;;;30.33;19.48;;;3.20;99.90;;;;;;5060799;28;20117;-91
2021/03/09 07:50:45;;;;;;;34.30;19.45;;;3.40;99.90;;;;;;5070111;22;20049;-91
2021/03/09 07:53:15;;;;;;;28.08;19.52;;;3.50;99.90;;;;;;5048323;28;20037;-91
2021/03/09 07:56:09;;;;;;;25.42;18.60;;;3.60;99.90;;;;;;5048973;28;20056;-90
2021/03/09 07:58:35;;;;;;;24.90;17.55;;;3.70;99.90;;;;;;5054726;28;20065;-91
2021/03/09 08:01:06;;;;;;;28.08;17.85;;;3.90;99.90;;;;;;5053581;28;20048;-91
2021/03/09 08:03:34;;;;;;;25.95;18.70;;;4.00;99.90;;;;;;5071681;28;20053;-91
2021/03/09 08:06:10;;;;;;;28.50;19.52;;;4.10;99.90;;;;;;5056840;28;20034;-92
2021/03/09 08:08:45;;;;;;;30.75;20.58;;;4.20;99.90;;;;;;5064215;28;20942;-92
2021/03/09 08:11:13;;;;;;;32.22;21.45;;;4.30;99.90;;;;;;5042479;28;20117;-91
2021/03/09 08:13:41;;;;;;;31.65;21.45;;;4.30;99.90;;;;;;5045840;28;20040;-92
2021/03/09 08:16:25;;;;;;;32.60;20.20;;;4.40;99.90;;;;;;5044300;28;20105;-92
2021/03/09 08:19:13;;;;;;;31.38;20.45;;;4.40;99.90;;;;;;5037151;28;20041;-92
2021/03/09 08:21:47;;;;;;;32.60;21.85;;;4.50;99.90;;;;;;5059731;28;20045;-91
2021/03/09 08:24:14;;;;;;;34.28;23.08;;;4.60;99.90;;;;;;5045703;28;20052;-91
2021/03/09 08:26:40;;;;;;;29.70;21.15;;;4.60;99.90;;;;;;5048388;28;20042;-92
2021/03/09 08:29:28;;;;;;;32.33;23.20;;;4.70;99.90;;;;;;5059653;28;20487;-92
2021/03/09 08:32:23;;;;;;;36.08;22.17;;;4.70;99.90;;;;;;5047537;28;20056;-92
2021/03/09 08:34:51;;;;;;;34.65;22.60;;;4.80;99.90;;;;;;5027664;28;20049;-92
2021/03/09 08:37:31;;;;;;;31.42;22.02;;;4.80;99.90;;;;;;5030562;28;20056;-92
2021/03/09 08:40:04;;;;;;;34.40;23.60;;;4.90;99.90;;;;;;5031062;28;20053;-91
2021/03/09 08:43:02;;;;;;;33.83;23.40;;;5.00;99.90;;;;;;5026762;28;20064;-92
2021/03/09 08:45:41;;;;;;;37.00;22.88;;;5.10;99.90;;;;;;5017112;28;20052;-92
2021/03/09 08:48:10;;;;;;;30.38;19.85;;;5.30;99.90;;;;;;5024815;28;20050;-92
2021/03/09 08:50:46;;;;;;;30.67;21.35;;;5.50;99.90;;;;;;5013942;28;20395;-92
2021/03/09 08:53:33;;;;;;;29.80;21.05;;;5.60;99.90;;;;;;5029565;28;20395;-92
2021/03/09 08:56:03;;;;;;;32.47;20.08;;;5.80;99.90;;;;;;5033739;28;20530;-92
2021/03/09 08:58:30;;;;;;;24.17;18.27;;;6.00;99.90;;;;;;5030737;28;20045;-92
2021/03/09 09:00:57;;;;;;;31.27;20.92;;;6.10;99.90;;;;;;5031994;28;20049;-91
2021/03/09 09:03:35;;;;;;;26.65;19.00;;;6.30;99.90;;;;;;5032197;28;20387;-91
2021/03/09 09:06:03;;;;;;;23.38;17.50;;;6.40;99.90;;;;;;5032477;28;20056;-92
2021/03/09 09:08:30;;;;;;;24.10;18.05;;;6.60;99.90;;;;;;5011791;28;20395;-92
2021/03/09 09:10:58;;;;;;;24.20;18.40;;;6.70;99.90;;;;;;5016588;28;20045;-92
2021/03/09 09:13:33;;;;;;;23.98;17.50;;;6.80;99.90;;;;;;5023115;28;20375;-92
2021/03/09 09:16:15;;;;;;;20.38;16.73;;;7.00;99.90;;;;;;5011295;28;20046;-92
2021/03/09 09:18:42;;;;;;;24.17;18.08;;;7.20;99.90;;;;;;5020410;28;20357;-92
2021/03/09 09:21:09;;;;;;;27.58;18.58;;;7.30;99.90;;;;;;5008908;28;20051;-92
2021/03/09 09:23:53;;;;;;;23.08;16.70;;;7.40;99.90;;;;;;5022554;28;20100;-92
2021/03/09 09:26:20;;;;;;;22.88;17.98;;;7.50;99.90;;;;;;5015922;28;20046;-91
2021/03/09 09:28:46;;;;;;;26.27;16.80;;;7.60;99.90;;;;;;5012347;28;20476;-92
2021/03/09 09:31:19;;;;;;;23.50;18.10;;;7.70;99.90;;;;;;5013051;28;20128;-91
2021/03/09 09:33:56;;;;;;;25.17;18.35;;;7.80;99.90;;;;;;5012887;28;20069;-92
2021/03/09 09:36:24;;;;;;;25.90;19.63;;;7.90;99.90;;;;;;5013430;28;20053;-92
2021/03/09 09:38:54;;;;;;;25.67;18.98;;;8.00;99.90;;;;;;5013823;28;20049;-92
2021/03/09 09:41:22;;;;;;;24.23;17.45;;;8.00;99.90;;;;;;5015512;28;20459;-93
2021/03/09 09:43:49;;;;;;;21.55;16.90;;;8.10;99.90;;;;;;5014817;28;20045;-93
2021/03/09 09:46:22;;;;;;;26.27;18.77;;;8.20;99.90;;;;;;5012208;28;20426;-92
2021/03/09 09:48:51;;;;;;;22.83;17.50;;;8.30;99.90;;;;;;5005021;28;20055;-92
2021/03/09 09:51:19;;;;;;;;;;;8.40;99.90;;;;;;5012955;28;20407;-93
2021/03/09 09:53:48;;;;;;;26.75;18.42;;;8.40;99.90;;;;;;5031093;28;19920;-92
2021/03/09 09:56:17;;;;;;;20.75;17.52;;;8.50;99.90;;;;;;5012402;28;20053;-92
2021/03/09 09:58:53;;;;;;;21.88;18.20;;;8.60;99.90;;;;;;5011791;28;20054;-92
2021/03/09 10:01:38;;;;;;;24.05;17.20;;;8.60;99.90;;;;;;5010341;28;20049;-92
2021/03/09 10:04:07;;;;;;;20.27;16.55;;;8.70;99.90;;;;;;5018632;28;20054;-92
2021/03/09 10:06:42;;;;;;;22.60;17.75;;;8.90;99.90;;;;;;5030148;28;20050;-92
2021/03/09 10:09:29;;;;;;;22.30;16.92;;;9.00;99.90;;;;;;5028514;28;20048;-92
2021/03/09 10:12:01;;;;;;;18.95;15.57;;;9.10;99.90;;;;;;5030386;28;20053;-92
2021/03/09 10:14:32;;;;;;;21.38;16.73;;;9.20;99.90;;;;;;5032015;28;20103;-93
2021/03/09 10:17:00;;;;;;;23.10;18.08;;;9.20;99.90;;;;;;5022081;28;20061;-92
2021/03/09 10:19:35;;;;;;;23.08;18.70;;;9.30;99.90;;;;;;5028068;28;20057;-92
2021/03/09 10:22:03;;;;;;;24.60;19.42;;;9.30;99.90;;;;;;5031070;28;20491;-92
2021/03/09 10:24:38;;;;;;;26.85;18.42;;;9.40;99.90;;;;;;5013401;28;20395;-92
2021/03/09 10:27:13;;;;;;;23.70;18.73;;;9.50;99.90;;;;;;5031201;28;20076;-92
2021/03/09 10:29:40;;;;;;;23.67;18.38;;;9.60;99.90;;;;;;5028130;28;20042;-92
2021/03/09 10:32:14;;;;;;;21.77;18.40;;;9.70;99.90;;;;;;5018838;28;20045;-92
2021/03/09 10:34:48;;;;;;;25.10;18.85;;;9.80;99.90;;;;;;5032728;28;20129;-92
2021/03/09 10:37:16;;;;;;;24.05;18.88;;;9.90;99.90;;;;;;5051240;28;20049;-92
2021/03/09 10:39:58;;;;;;;26.05;18.73;;;9.90;99.90;;;;;;5043636;28;20045;-93
2021/03/09 10:42:39;;;;;;;22.45;18.00;;;10.10;99.90;;;;;;5035258;28;20042;-93
2021/03/09 10:45:41;;;;;;;22.70;18.40;;;10.20;99.90;;;;;;5026275;28;20124;-93
2021/03/09 10:48:08;;;;;;;23.92;17.88;;;10.30;99.90;;;;;;4934933;29;20044;-93
2021/03/09 10:50:44;;;;;;;24.48;19.90;;;10.40;99.90;;;;;;4936504;29;20131;-93
2021/03/09 10:53:12;;;;;;;24.60;19.67;;;10.40;99.90;;;;;;4935363;29;20199;-92
2021/03/09 10:55:38;;;;;;;25.50;18.83;;;10.40;99.90;;;;;;4946708;29;20054;-93
2021/03/09 10:58:05;;;;;;;26.35;19.90;;;10.40;99.90;;;;;;4917216;29;20083;-93
2021/03/09 11:00:32;;;;;;;24.50;18.23;;;10.40;99.90;;;;;;4930037;29;20505;-92
2021/03/09 11:02:59;;;;;;;24.45;20.23;;;10.30;99.90;;;;;;4921078;29;20044;-93
2021/03/09 11:05:26;;;;;;;25.55;18.13;;;10.20;99.90;;;;;;4915421;28;20039;-93
2021/03/09 11:07:52;;;;;;;22.67;17.88;;;10.20;99.90;;;;;;4927787;29;20048;-92
2021/03/09 11:10:19;;;;;;;20.52;18.30;;;10.10;99.90;;;;;;4925008;29;20040;-93
2021/03/09 11:12:46;;;;;;;22.30;17.42;;;10.20;99.90;;;;;;4942150;28;20051;-91
2021/03/09 11:15:13;;;;;;;22.35;18.05;;;10.20;99.90;;;;;;4934886;28;20044;-93
2021/03/09 11:17:39;;;;;;;24.05;19.10;;;10.20;99.90;;;;;;4919849;29;20046;-92
2021/03/09 11:20:07;;;;;;;22.17;18.17;;;10.10;99.90;;;;;;4923257;28;20055;-92
2021/03/09 11:22:34;;;;;;;23.80;19.05;;;10.10;99.90;;;;;;4974680;28;20149;-92
2021/03/09 11:25:12;;;;;;;21.92;18.63;;;10.00;99.90;;;;;;5005790;28;20042;-92
2021/03/09 11:27:39;;;;;;;21.73;17.95;;;10.00;99.90;;;;;;5004368;28;20049;-92
2021/03/09 11:30:06;;;;;;;20.92;17.55;;;9.90;99.90;;;;;;5008847;28;20133;-92
2021/03/09 11:32:33;;;;;;;22.15;18.90;;;10.00;99.90;;;;;;5007295;28;20042;-92
2021/03/09 11:35:00;;;;;;;20.90;18.08;;;10.00;99.90;;;;;;5030183;28;20099;-92
2021/03/09 11:37:27;;;;;;;22.70;17.45;;;10.00;99.90;;;;;;5029273;28;20042;-92
2021/03/09 11:39:53;;;;;;;20.48;15.18;;;10.10;99.90;;;;;;5029286;28;20045;-93
2021/03/09 11:42:20;;;;;;;18.85;15.43;;;10.20;99.90;;;;;;5028242;28;20092;-92
2021/03/09 11:44:46;;;;;;;19.10;15.40;;;10.20;99.90;;;;;;5030005;28;20046;-93
2021/03/09 11:47:13;;;;;;;20.83;16.45;;;10.30;99.70;;;;;;5028695;28;20049;-93
2021/03/09 11:49:40;;;;;;;18.25;15.55;;;10.40;99.80;;;;;;5017499;28;20041;-93
2021/03/09 11:52:07;;;;;;;20.13;16.58;;;10.40;99.80;;;;;;5020483;28;20041;-92
2021/03/09 11:54:34;;;;;;;18.27;15.23;;;10.50;99.70;;;;;;5027401;28;20045;-92
2021/03/09 11:57:00;;;;;;;18.65;15.65;;;10.50;99.80;;;;;;5041861;28;20532;-93
2021/03/09 11:59:27;;;;;;;22.08;17.75;;;10.60;99.90;;;;;;5033357;28;20045;-93
2021/03/09 12:01:53;;;;;;;21.75;17.02;;;10.60;99.80;;;;;;5035585;28;20057;-93
2021/03/09 12:04:20;;;;;;;21.30;17.20;;;10.70;99.90;;;;;;5018655;28;20415;-92
2021/03/09 12:06:47;;;;;;;21.98;17.33;;;10.80;99.90;;;;;;5008144;28;20049;-93
2021/03/09 12:09:14;;;;;;;19.52;16.90;;;10.80;99.90;;;;;;5012829;28;20046;-93
2021/03/09 12:11:41;;;;;;;22.13;17.33;;;10.80;99.90;;;;;;5032568;28;20141;-93
2021/03/09 12:14:07;;;;;;;22.45;18.25;;;10.90;99.90;;;;;;5025452;28;20104;-94
2021/03/09 12:16:34;;;;;;;22.00;17.83;;;10.90;99.60;;;;;;5016880;28;20048;-93
2021/03/09 12:19:02;;;;;;;21.45;18.08;;;10.90;99.40;;;;;;5015099;28;20550;-92
2021/03/09 12:21:29;;;;;;;21.73;17.48;;;10.90;99.50;;;;;;5021995;28;20049;-93
2021/03/09 12:23:55;;;;;;;21.75;17.88;;;10.90;99.10;;;;;;5015617;28;20046;-94
2021/03/09 12:26:22;;;;;;;22.15;17.80;;;10.90;98.90;;;;;;5012278;28;20045;-93
2021/03/09 12:28:49;;;;;;;24.27;18.92;;;10.90;99.00;;;;;;5013336;28;20049;-93
2021/03/09 12:31:15;;;;;;;19.95;17.80;;;11.00;99.10;;;;;;5013513;28;20056;-92
2021/03/09 12:33:42;;;;;;;22.33;17.08;;;11.10;99.00;;;;;;5014612;28;20042;-93
2021/03/09 12:36:09;;;;;;;18.70;16.63;;;11.20;99.10;;;;;;5012709;28;20034;-93
2021/03/09 12:38:36;;;;;;;19.88;17.40;;;11.30;99.20;;;;;;5013688;28;20046;-92
2021/03/09 12:41:02;;;;;;;22.02;17.02;;;11.40;99.00;;;;;;5014575;28;20057;-93
2021/03/09 12:43:29;;;;;;;19.48;17.27;;;11.50;98.60;;;;;;5012699;28;20041;-93
2021/03/09 12:45:56;;;;;;;22.58;18.95;;;11.50;98.90;;;;;;5011583;28;20492;-93
2021/03/09 12:48:23;;;;;;;23.98;18.48;;;11.60;98.80;;;;;;5027642;28;20126;-93
2021/03/09 12:50:51;;;;;;;22.48;19.05;;;11.60;99.00;;;;;;5013963;28;20467;-94
2021/03/09 12:53:17;;;;;;;21.60;18.35;;;11.70;98.90;;;;;;5024870;28;20045;-94